createdAt,value
2022-10-14T00:01:35.553Z,12.00
2022-10-14T00:04:08.991Z,11.00
2022-10-14T00:06:37.150Z,12.25
2022-10-14T00:09:07.719Z,9.50
2022-10-14T00:11:38.014Z,12.00
2022-10-14T00:14:10.753Z,6.50
2022-10-14T00:16:41.212Z,11.00
2022-10-14T00:19:09.420Z,11.00
2022-10-14T00:21:40.099Z,8.00
2022-10-14T00:24:08.474Z,12.00
2022-10-14T00:26:38.282Z,11.00
2022-10-14T00:29:09.653Z,7.50
2022-10-14T00:31:38.350Z,8.00
2022-10-14T00:34:06.615Z,12.00
2022-10-14T00:36:34.869Z,11.50
2022-10-14T00:39:02.984Z,8.00
2022-10-14T00:41:32.850Z,10.00
2022-10-14T00:44:07.400Z,15.00
2022-10-14T00:46:54.731Z,10.50
2022-10-14T00:49:38.129Z,13.00
2022-10-14T00:52:11.763Z,8.67
2022-10-14T00:54:42.922Z,8.00
2022-10-14T00:57:11.704Z,12.00
2022-10-14T00:59:40.175Z,14.00
2022-10-14T01:02:08.453Z,9.50
2022-10-14T01:04:39.975Z,11.00
2022-10-14T01:07:38.640Z,10.67
2022-10-14T01:10:25.527Z,12.00
2022-10-14T01:13:27.797Z,10.67
2022-10-14T01:16:02.193Z,11.50
2022-10-14T01:18:56.625Z,6.67
2022-10-14T01:21:36.075Z,6.50
2022-10-14T01:24:05.701Z,11.00
2022-10-14T01:27:04.431Z,15.33
2022-10-14T01:30:00.505Z,6.50
2022-10-14T01:32:38.223Z,11.00
2022-10-14T01:35:27.940Z,11.00
2022-10-14T01:38:05.889Z,11.33
2022-10-14T01:40:40.933Z,9.33
2022-10-14T01:43:10.808Z,7.00
2022-10-14T01:45:42.460Z,9.50
2022-10-14T01:48:11.322Z,15.00
2022-10-14T01:50:40.472Z,8.50
2022-10-14T01:53:14.600Z,11.00
2022-10-14T01:55:45.133Z,13.00
2022-10-14T01:58:17.178Z,9.00
2022-10-14T02:00:48.016Z,8.00
2022-10-14T02:03:16.237Z,8.00
2022-10-14T02:05:53.421Z,7.50
2022-10-14T02:08:41.082Z,11.50
2022-10-14T02:11:16.032Z,6.00
2022-10-14T02:14:11.697Z,8.33
2022-10-14T02:16:49.878Z,12.50
2022-10-14T02:19:29.722Z,13.00
2022-10-14T02:22:24.495Z,7.33
2022-10-14T02:24:55.165Z,10.50
2022-10-14T02:27:25.973Z,9.00
2022-10-14T02:29:55.026Z,10.50
2022-10-14T02:32:25.181Z,8.00
2022-10-14T02:34:55.434Z,9.00
2022-10-14T02:37:24.113Z,12.00
2022-10-14T02:40:24.108Z,9.00
2022-10-14T02:42:52.332Z,11.00
2022-10-14T02:45:21.253Z,7.00
2022-10-14T02:47:49.473Z,9.50
2022-10-14T02:50:19.257Z,12.00
2022-10-14T02:52:47.753Z,9.50
2022-10-14T02:55:15.848Z,9.00
2022-10-14T02:57:44.020Z,11.00
2022-10-14T03:00:12.729Z,12.00
2022-10-14T03:02:40.815Z,8.00
2022-10-14T03:05:09.692Z,7.00
2022-10-14T03:10:05.989Z,12.00
2022-10-14T03:12:34.177Z,9.50
2022-10-14T03:15:02.477Z,11.00
2022-10-14T03:17:30.930Z,10.00
2022-10-14T03:19:59.615Z,7.00
2022-10-14T03:22:27.813Z,11.00
2022-10-14T03:24:56.098Z,9.33
2022-10-14T03:27:24.462Z,8.50
2022-10-14T03:29:52.676Z,7.00
2022-10-14T03:32:20.975Z,9.75
2022-10-14T03:34:49.378Z,9.00
2022-10-14T03:37:17.592Z,11.00
2022-10-14T03:39:45.887Z,8.50
2022-10-14T03:42:14.097Z,10.00
2022-10-14T03:44:42.316Z,8.50
2022-10-14T03:47:10.648Z,10.00
2022-10-14T03:49:38.866Z,8.00
2022-10-14T03:52:06.942Z,8.33
2022-10-14T03:54:35.171Z,8.50
2022-10-14T03:57:03.331Z,8.00
2022-10-14T03:59:31.493Z,11.00
2022-10-14T04:01:59.729Z,7.50
2022-10-14T04:04:27.973Z,10.50
2022-10-14T04:06:56.285Z,5.00
2022-10-14T04:09:24.645Z,7.00
2022-10-14T04:11:52.830Z,6.33
2022-10-14T04:14:21.075Z,7.50
2022-10-14T04:16:50.127Z,10.00
2022-10-14T04:19:18.745Z,7.00
2022-10-14T04:21:46.967Z,11.00
2022-10-14T04:24:15.830Z,10.00
2022-10-14T04:26:44.120Z,11.67
2022-10-14T04:29:12.262Z,7.00
2022-10-14T04:31:40.581Z,9.25
2022-10-14T04:34:10.449Z,8.00
2022-10-14T04:36:39.901Z,9.67
2022-10-14T04:39:08.177Z,13.00
2022-10-14T04:41:36.377Z,12.00
2022-10-14T04:44:04.749Z,13.50
2022-10-14T04:46:33.017Z,8.00
2022-10-14T04:49:01.216Z,15.00
2022-10-14T04:51:29.437Z,10.00
2022-10-14T04:53:57.758Z,10.00
2022-10-14T04:56:25.979Z,8.50
2022-10-14T04:58:54.057Z,6.50
2022-10-14T05:01:22.269Z,12.00
2022-10-14T05:03:51.575Z,13.00
2022-10-14T05:06:19.704Z,9.00
2022-10-14T05:08:47.936Z,9.00
2022-10-14T05:11:16.136Z,7.67
2022-10-14T05:13:44.338Z,12.00
2022-10-14T05:16:13.131Z,11.00
2022-10-14T05:18:41.630Z,7.00
2022-10-14T05:21:09.770Z,9.00
2022-10-14T05:23:38.067Z,9.00
2022-10-14T05:26:06.333Z,8.00
2022-10-14T05:28:34.678Z,10.50
2022-10-14T05:31:02.850Z,12.00
2022-10-14T05:33:31.463Z,10.00
2022-10-14T05:35:59.977Z,7.33
2022-10-14T05:38:28.221Z,8.00
2022-10-14T05:40:57.972Z,6.00
2022-10-14T05:43:32.047Z,9.00
2022-10-14T05:46:01.499Z,6.50
2022-10-14T05:48:29.827Z,10.00
2022-10-14T05:51:01.706Z,9.00
2022-10-14T05:53:30.757Z,9.00
2022-10-14T05:56:07.384Z,8.00
2022-10-14T05:58:35.631Z,9.00
2022-10-14T06:01:06.023Z,8.50
2022-10-14T06:03:34.592Z,7.00
2022-10-14T06:06:02.781Z,5.00
2022-10-14T06:08:31.064Z,7.00
2022-10-14T06:11:03.522Z,8.50
2022-10-14T06:13:31.814Z,11.33
2022-10-14T06:16:07.809Z,6.00
2022-10-14T06:18:36.225Z,8.00
2022-10-14T06:21:05.582Z,12.00
2022-10-14T06:23:33.839Z,8.00
2022-10-14T06:26:06.664Z,6.00
2022-10-14T06:28:35.001Z,10.67
2022-10-14T06:31:03.465Z,15.00
2022-10-14T06:33:31.950Z,7.67
2022-10-14T06:36:02.749Z,11.50
2022-10-14T06:38:31.564Z,11.00
2022-10-14T06:40:59.666Z,13.67
2022-10-14T06:43:27.882Z,7.50
2022-10-14T06:45:58.548Z,8.67
2022-10-14T06:48:26.769Z,8.00
2022-10-14T06:50:55.029Z,12.50
2022-10-14T06:53:23.268Z,7.00
2022-10-14T06:55:58.503Z,14.00
2022-10-14T06:58:27.081Z,12.00
2022-10-14T07:00:55.718Z,20.00
2022-10-14T07:03:24.276Z,16.00
2022-10-14T07:05:52.744Z,12.00
2022-10-14T07:08:21.052Z,9.00
2022-10-14T07:10:49.194Z,8.50
2022-10-14T07:13:17.386Z,15.50
2022-10-14T07:15:49.707Z,12.00
2022-10-14T07:18:18.095Z,16.00
2022-10-14T07:20:46.949Z,14.00
2022-10-14T07:23:15.262Z,12.00
2022-10-14T07:25:44.084Z,16.33
2022-10-14T07:28:12.369Z,11.50
2022-10-14T07:30:40.581Z,13.25
2022-10-14T07:33:08.779Z,12.00
2022-10-14T07:35:39.204Z,11.00
2022-10-14T07:38:07.342Z,14.00
2022-10-14T07:40:35.602Z,16.00
2022-10-14T07:43:03.795Z,12.67
2022-10-14T07:45:35.961Z,11.50
2022-10-14T07:48:04.304Z,12.00
2022-10-14T07:50:32.567Z,10.00
2022-10-14T07:53:01.586Z,17.50
2022-10-14T07:55:29.888Z,10.33
2022-10-14T07:57:58.121Z,12.00
2022-10-14T08:00:26.350Z,12.50
2022-10-14T08:02:54.864Z,12.00
2022-10-14T08:05:37.564Z,15.50
2022-10-14T08:08:06.276Z,13.67
2022-10-14T08:10:34.473Z,12.33
2022-10-14T08:13:02.822Z,14.00
2022-10-14T08:15:38.912Z,14.33
2022-10-14T08:18:08.406Z,16.00
2022-10-14T08:20:36.798Z,10.33
2022-10-14T08:23:04.969Z,12.50
2022-10-14T08:25:33.334Z,9.00
2022-10-14T08:28:01.679Z,17.00
2022-10-14T08:30:29.884Z,13.67
2022-10-14T08:32:58.080Z,9.00
2022-10-14T08:35:26.297Z,7.75
2022-10-14T08:38:02.154Z,17.00
2022-10-14T08:40:31.615Z,14.00
2022-10-14T08:43:08.849Z,11.00
2022-10-14T08:45:50.505Z,11.33
2022-10-14T08:48:23.068Z,13.50
2022-10-14T08:50:54.985Z,16.50
2022-10-14T08:53:28.762Z,15.00
2022-10-14T08:56:01.126Z,22.50
2022-10-14T08:58:36.434Z,18.00
2022-10-14T09:01:22.830Z,14.67
2022-10-14T09:03:55.056Z,15.67
2022-10-14T09:06:28.550Z,13.50
2022-10-14T09:09:05.061Z,18.75
2022-10-14T09:11:39.846Z,15.00
2022-10-14T09:14:12.352Z,16.50
2022-10-14T09:16:40.919Z,15.50
2022-10-14T09:19:21.717Z,13.00
2022-10-14T09:21:53.687Z,21.00
2022-10-14T09:24:22.058Z,12.00
2022-10-14T09:27:01.581Z,10.00
2022-10-14T09:29:33.018Z,9.00
2022-10-14T09:32:08.447Z,9.50
2022-10-14T09:34:42.027Z,12.00
2022-10-14T09:37:33.109Z,8.00
2022-10-14T09:40:13.390Z,14.00
2022-10-14T09:42:50.372Z,11.00
2022-10-14T09:45:22.854Z,12.67
2022-10-14T09:48:07.456Z,9.25
2022-10-14T09:50:40.578Z,6.00
2022-10-14T09:53:18.093Z,8.75
2022-10-14T09:55:53.778Z,8.00
2022-10-14T09:58:35.676Z,9.50
2022-10-14T10:01:04.186Z,9.00
2022-10-14T10:03:35.222Z,9.00
2022-10-14T10:06:07.231Z,10.00
2022-10-14T10:08:55.368Z,9.00
2022-10-14T10:11:33.740Z,11.33
2022-10-14T10:14:16.924Z,12.00
2022-10-14T10:16:45.349Z,12.00
2022-10-14T10:19:21.634Z,9.75
2022-10-14T10:21:49.759Z,10.00
2022-10-14T10:24:26.087Z,13.00
2022-10-14T10:26:56.982Z,13.00
2022-10-14T10:29:31.996Z,13.00
2022-10-14T10:32:18.988Z,17.00
2022-10-14T10:35:16.112Z,12.00
2022-10-14T10:38:15.075Z,11.75
2022-10-14T10:41:15.490Z,11.00
2022-10-14T10:44:10.372Z,10.67
2022-10-14T10:46:38.511Z,14.00
2022-10-14T10:49:22.323Z,5.50
2022-10-14T10:52:16.151Z,9.50
2022-10-14T10:54:58.794Z,10.00
2022-10-14T10:57:42.144Z,4.00
2022-10-14T11:00:17.477Z,12.00
2022-10-14T11:02:51.835Z,6.33
2022-10-14T11:05:38.432Z,12.50
2022-10-14T11:08:47.657Z,9.33
2022-10-14T11:11:45.057Z,12.67
2022-10-14T11:14:33.536Z,9.50
2022-10-14T11:17:04.729Z,10.00
2022-10-14T11:19:38.473Z,8.00
2022-10-14T11:22:43.941Z,8.00
2022-10-14T11:25:26.740Z,9.50
2022-10-14T11:28:38.437Z,12.67
2022-10-14T11:32:04.460Z,9.00
2022-10-14T11:34:41.760Z,7.00
2022-10-14T11:37:28.530Z,7.00
2022-10-14T11:40:31.732Z,12.00
2022-10-14T11:43:39.627Z,7.50
2022-10-14T11:46:18.590Z,7.00
2022-10-14T11:48:57.866Z,9.00
2022-10-14T11:51:42.643Z,5.00
2022-10-14T11:54:44.257Z,8.00
2022-10-14T11:57:36.615Z,6.00
2022-10-14T12:00:14.554Z,6.33
2022-10-14T12:03:10.027Z,8.00
2022-10-14T12:05:43.802Z,12.00
2022-10-14T12:08:28.469Z,6.00
2022-10-14T12:11:18.019Z,9.75
2022-10-14T12:13:49.737Z,9.00
2022-10-14T12:16:21.039Z,5.50
2022-10-14T12:18:53.176Z,6.00
2022-10-14T12:21:38.485Z,5.33
2022-10-14T12:24:10.833Z,9.00
2022-10-14T12:26:54.759Z,12.50
2022-10-14T12:29:33.138Z,7.00
2022-10-14T12:32:04.224Z,4.50
2022-10-14T12:34:40.339Z,7.67
2022-10-14T12:37:38.265Z,6.00
2022-10-14T12:40:13.084Z,8.00
2022-10-14T12:42:44.306Z,6.33
2022-10-14T12:45:22.154Z,7.00
2022-10-14T12:48:15.583Z,9.00
2022-10-14T12:50:44.599Z,10.00
2022-10-14T12:53:17.306Z,7.00
2022-10-14T12:55:51.879Z,8.00
2022-10-14T12:58:35.722Z,9.00
2022-10-14T13:01:07.614Z,9.67
2022-10-14T13:03:43.570Z,10.00
2022-10-14T13:06:42.571Z,13.00
2022-10-14T13:09:15.273Z,11.00
2022-10-14T13:11:45.644Z,19.50
2022-10-14T13:14:26.077Z,16.00
2022-10-14T13:16:59.679Z,20.00
2022-10-14T13:19:34.182Z,18.50
2022-10-14T13:22:28.525Z,21.00
2022-10-14T13:25:13.244Z,22.00
2022-10-14T13:27:49.817Z,19.00
2022-10-14T13:30:38.080Z,26.00
2022-10-14T13:33:18.916Z,14.00
2022-10-14T13:36:12.206Z,26.50
2022-10-14T13:38:45.900Z,25.00
2022-10-14T13:41:30.682Z,25.00
2022-10-14T13:44:00.641Z,31.00
2022-10-14T13:46:58.173Z,33.50
2022-10-14T13:49:36.138Z,35.00
2022-10-14T13:52:06.862Z,35.00
2022-10-14T13:54:35.182Z,50.00
2022-10-14T14:02:55.862Z,54.00
2022-10-14T14:05:31.705Z,56.00
2022-10-14T14:11:16.404Z,66.50
2022-10-14T14:14:16.571Z,68.00
2022-10-14T14:17:01.215Z,67.00
2022-10-14T14:19:33.781Z,77.67
2022-10-14T14:22:23.723Z,67.50
2022-10-14T14:24:52.250Z,73.00
2022-10-14T14:27:23.882Z,68.50
2022-10-14T14:29:54.315Z,71.00
2022-10-14T14:32:28.621Z,79.00
2022-10-14T14:34:57.056Z,74.00
2022-10-14T14:37:48.076Z,79.33
2022-10-14T14:40:25.112Z,87.00
2022-10-14T14:43:03.822Z,80.00
2022-10-14T14:45:42.067Z,99.00
2022-10-14T14:48:15.863Z,81.50
2022-10-14T14:50:45.417Z,87.00
2022-10-14T14:53:20.071Z,81.00
2022-10-14T14:56:05.854Z,89.00
2022-10-14T14:58:44.695Z,76.00
2022-10-14T15:01:22.738Z,79.67
2022-10-14T15:04:12.685Z,85.00
2022-10-14T15:06:51.445Z,83.00
2022-10-14T15:09:27.435Z,88.00
2022-10-14T15:11:58.077Z,79.00
2022-10-14T15:14:44.735Z,85.00
2022-10-14T15:17:46.292Z,82.00
2022-10-14T15:22:44.864Z,83.00
2022-10-14T15:25:23.407Z,91.67
2022-10-14T15:27:56.020Z,86.67
2022-10-14T15:30:32.034Z,79.00
2022-10-14T15:33:03.405Z,93.50
2022-10-14T15:35:32.146Z,94.00
2022-10-14T15:38:00.253Z,80.00
2022-10-14T15:40:30.495Z,104.50
2022-10-14T15:42:58.988Z,93.00
2022-10-14T15:45:27.404Z,84.50
2022-10-14T15:47:58.042Z,100.50
2022-10-14T15:50:26.531Z,77.00
2022-10-14T15:52:55.119Z,82.00
2022-10-14T15:55:25.744Z,83.00
2022-10-14T15:57:54.458Z,86.50
2022-10-14T16:00:24.786Z,90.00
2022-10-14T16:02:54.908Z,81.50
2022-10-14T16:05:23.190Z,78.00
2022-10-14T16:07:51.761Z,96.33
2022-10-14T16:10:21.268Z,78.50
2022-10-14T16:12:49.859Z,91.50
2022-10-14T16:15:21.323Z,79.00
2022-10-14T16:17:52.817Z,79.00
2022-10-14T16:20:22.596Z,76.00
2022-10-14T16:22:50.896Z,80.50
2022-10-14T16:25:25.912Z,77.00
2022-10-14T16:27:54.611Z,77.50
2022-10-14T16:30:22.837Z,85.00
2022-10-14T16:32:51.330Z,80.50
2022-10-14T16:35:19.504Z,87.00
2022-10-14T16:37:49.137Z,80.33
2022-10-14T16:40:17.357Z,87.00
2022-10-14T16:42:45.524Z,71.00
2022-10-14T16:45:14.245Z,77.00
2022-10-14T16:47:42.659Z,74.50
2022-10-14T16:50:11.708Z,73.50
2022-10-14T16:53:00.860Z,64.00
2022-10-14T16:55:31.800Z,73.00
2022-10-14T16:58:00.249Z,86.00
2022-10-14T17:00:28.494Z,70.50
2022-10-14T17:02:56.829Z,68.00
2022-10-14T17:05:25.370Z,65.00
2022-10-14T17:07:53.511Z,63.50
2022-10-14T17:10:21.912Z,68.00
2022-10-14T17:12:50.184Z,64.00
2022-10-14T17:15:18.545Z,59.00
2022-10-14T17:17:46.707Z,62.00
2022-10-14T17:20:14.972Z,64.00
2022-10-14T17:22:43.304Z,61.00
2022-10-14T17:25:11.565Z,74.00
2022-10-14T17:27:39.763Z,60.00
2022-10-14T17:30:08.553Z,69.00
2022-10-14T17:32:37.420Z,59.50
2022-10-14T17:35:06.965Z,53.00
2022-10-14T17:37:35.704Z,57.00
2022-10-14T17:40:04.123Z,51.00
2022-10-14T17:42:32.244Z,50.00
2022-10-14T17:45:00.458Z,50.00
2022-10-14T17:47:29.166Z,50.00
2022-10-14T17:49:57.519Z,50.00
2022-10-14T17:52:25.807Z,49.00
2022-10-14T17:54:57.562Z,50.00
2022-10-14T17:57:28.663Z,48.00
2022-10-14T17:59:56.951Z,40.00
2022-10-14T18:04:53.378Z,48.00
2022-10-14T18:07:23.386Z,40.00
2022-10-14T18:09:51.950Z,45.00
2022-10-14T18:12:20.587Z,49.00
2022-10-14T18:14:48.941Z,44.50
2022-10-14T18:17:17.054Z,39.00
2022-10-14T18:19:49.737Z,41.00
2022-10-14T18:22:20.328Z,32.00
2022-10-14T18:24:48.505Z,36.50
2022-10-14T18:27:16.794Z,32.00
2022-10-14T18:29:45.203Z,34.00
2022-10-14T18:32:13.431Z,34.50
2022-10-14T18:34:41.710Z,36.50
2022-10-14T18:37:10.025Z,32.00
2022-10-14T18:39:38.350Z,26.00
2022-10-14T18:42:06.585Z,31.00
2022-10-14T18:44:34.749Z,31.00
2022-10-14T18:47:02.983Z,25.00
2022-10-14T18:49:31.315Z,32.50
2022-10-14T18:51:59.646Z,26.00
2022-10-14T18:54:28.347Z,26.00
2022-10-14T18:56:56.658Z,23.50
2022-10-14T18:59:25.015Z,26.00
2022-10-14T19:01:54.094Z,23.00
2022-10-14T19:04:25.860Z,26.00
2022-10-14T19:06:54.152Z,26.50
2022-10-14T19:09:24.879Z,28.00
2022-10-14T19:11:53.147Z,25.00
2022-10-14T19:14:22.484Z,26.67
2022-10-14T19:16:51.042Z,17.00
2022-10-14T19:19:20.581Z,24.00
2022-10-14T19:21:50.672Z,28.00
2022-10-14T19:24:19.012Z,22.00
2022-10-14T19:26:49.010Z,23.00
2022-10-14T19:29:17.542Z,22.00
2022-10-14T19:31:46.145Z,24.00
2022-10-14T19:34:16.207Z,16.00
2022-10-14T19:36:44.748Z,17.50
2022-10-14T19:39:16.162Z,17.00
2022-10-14T19:41:46.715Z,16.00
2022-10-14T19:44:16.405Z,15.50
2022-10-14T19:46:45.533Z,21.50
2022-10-14T19:49:15.022Z,18.33
2022-10-14T19:51:44.409Z,12.00
2022-10-14T19:54:13.798Z,19.00
2022-10-14T19:56:42.478Z,20.50
2022-10-14T19:59:11.261Z,22.00
2022-10-14T20:01:39.545Z,23.00
2022-10-14T20:04:07.830Z,22.50
2022-10-14T20:06:38.291Z,18.50
2022-10-14T20:09:07.940Z,22.00
2022-10-14T20:11:36.607Z,25.00
2022-10-14T20:14:04.797Z,21.00
2022-10-14T20:16:33.317Z,21.00
2022-10-14T20:19:01.613Z,22.33
2022-10-14T20:21:31.166Z,24.00
2022-10-14T20:23:59.900Z,20.00
2022-10-14T20:26:28.671Z,20.00
2022-10-14T20:28:56.979Z,19.33
2022-10-14T20:31:28.034Z,24.00
2022-10-14T20:33:57.199Z,23.00
2022-10-14T20:36:25.490Z,23.50
2022-10-14T20:38:53.790Z,26.00
2022-10-14T20:41:24.187Z,21.00
2022-10-14T20:43:54.030Z,28.00
2022-10-14T20:46:23.468Z,27.50
2022-10-14T20:48:56.105Z,34.50
2022-10-14T20:51:25.236Z,30.50
2022-10-14T20:54:02.045Z,22.50
2022-10-14T20:56:33.705Z,31.00
2022-10-14T20:59:04.520Z,28.00
2022-10-14T21:01:34.349Z,26.00
2022-10-14T21:04:05.569Z,25.00
2022-10-14T21:06:34.426Z,22.50
2022-10-14T21:09:02.847Z,27.00
2022-10-14T21:11:31.392Z,25.00
2022-10-14T21:14:00.657Z,24.50
2022-10-14T21:16:31.149Z,21.00
2022-10-14T21:19:05.792Z,18.00
2022-10-14T21:21:37.207Z,23.00
2022-10-14T21:24:05.837Z,23.00
2022-10-14T21:26:33.948Z,26.00
2022-10-14T21:29:02.780Z,20.50
2022-10-14T21:31:31.373Z,21.00
2022-10-14T21:34:05.409Z,23.00
2022-10-14T21:36:38.087Z,24.00
2022-10-14T21:39:17.066Z,23.50
2022-10-14T21:41:45.813Z,18.50
2022-10-14T21:44:16.280Z,24.00
2022-10-14T21:46:44.690Z,20.00
2022-10-14T21:49:13.598Z,17.00
2022-10-14T21:51:41.947Z,18.00
2022-10-14T21:54:12.593Z,19.50
2022-10-14T21:56:40.742Z,23.00
2022-10-14T21:59:10.160Z,18.33
2022-10-14T22:01:38.471Z,17.00
2022-10-14T22:04:07.287Z,19.00
2022-10-14T22:06:36.398Z,20.00
2022-10-14T22:09:07.099Z,18.50
2022-10-14T22:11:38.381Z,18.00
2022-10-14T22:14:10.234Z,16.00
2022-10-14T22:16:38.793Z,18.33
2022-10-14T22:19:07.445Z,16.00
2022-10-14T22:21:36.836Z,19.00
2022-10-14T22:24:05.940Z,19.50
2022-10-14T22:26:34.557Z,18.50
2022-10-14T22:29:06.186Z,19.50
2022-10-14T22:31:35.181Z,19.00
2022-10-14T22:34:05.099Z,16.00
2022-10-14T22:36:34.999Z,17.00
2022-10-14T22:39:07.238Z,17.50
2022-10-14T22:41:36.160Z,16.00
2022-10-14T22:44:05.616Z,18.00
2022-10-14T22:46:35.686Z,19.00
2022-10-14T22:49:04.568Z,22.00
2022-10-14T22:51:43.126Z,11.00
2022-10-14T22:54:11.521Z,15.50
2022-10-14T22:56:40.446Z,17.00
2022-10-14T22:59:11.432Z,17.00
2022-10-14T23:01:41.459Z,14.00
2022-10-14T23:04:10.681Z,18.00
2022-10-14T23:06:40.082Z,20.50
2022-10-14T23:09:08.204Z,17.00
2022-10-14T23:11:36.376Z,14.00
2022-10-14T23:14:07.096Z,15.00
2022-10-14T23:16:36.342Z,18.00
2022-10-14T23:19:04.994Z,12.00
2022-10-14T23:21:35.774Z,14.00
2022-10-14T23:24:07.453Z,16.00
2022-10-14T23:26:36.268Z,15.00
2022-10-14T23:29:11.821Z,16.00
2022-10-14T23:31:40.916Z,17.00
2022-10-14T23:34:13.771Z,14.00
2022-10-14T23:36:42.358Z,12.50
2022-10-14T23:39:10.860Z,11.00
2022-10-14T23:41:39.259Z,12.50
2022-10-14T23:44:07.547Z,13.50
2022-10-14T23:46:35.725Z,13.00
2022-10-14T23:49:21.162Z,11.75
2022-10-14T23:51:51.992Z,14.33
2022-10-14T23:54:20.181Z,13.00
2022-10-14T23:56:48.443Z,16.00
2022-10-14T23:59:16.768Z,14.00
